Terminal Aerodrome Forecast
Issued by NWS

Home | Current Version | Previous Version | Text Only | Print | Product List | Glossary On
Versions: 1 2 3 4 5 6 7 8 9 10 11 12 13
000
FTUS45 KABQ 291100 RRA
TAFROW
TAF
KROW 291143Z 2912/3012 01015KT P6SM BKN250
     FM291500 02015G25KT P6SM SCT100 BKN150
     FM292200 03012G20KT P6SM SCT050 BKN100
     FM300300 05010KT P6SM VCSH SCT035 BKN060 OVC100=

USA.gov is the U.S. government's official web portal to all federal, state and local government web resources and services.